CheckWX is a tool to help pilots better visualize weather data.  It is not intended as a substitute for an official pre-flight weather briefing.

04:50:48 UTC

KJDD METAR
Wood County Airport
Mineola/Quitman, Texas, USA
Current

16 mins ago

KJDD 260435Z AUTO 14003KT 10SM BKN120 27/24 A2981 RMK AO2
Observed
Aug-26 @ 04:35 UTC
Wind
  • 140° at 3 KTS
Visibility
10 SM
Flight Rules
VFR
Cloud Levels
  • Broken at 12,000' AGL
Temperature
27°C / 81°F
Dewpoint
24°C / 75°F
Heat Index
31°C / 87°F
Humidity
84%
Altimeter
29.81" Hg
Pressure
1009.52 hPa
Previous

36 mins ago

KJDD 260415Z AUTO 00000KT 10SM SCT120 27/24 A2981 RMK AO2
Observed
Aug-26 @ 04:15 UTC
Visibility
10 SM
Flight Rules
VFR
Cloud Levels
  • Scattered at 12,000' AGL
Temperature
27°C / 81°F
Dewpoint
24°C / 75°F
Heat Index
31°C / 87°F
Humidity
84%
Altimeter
29.81" Hg
Pressure
1009.52 hPa
Previous

56 mins ago

KJDD 260355Z AUTO 13003KT 10SM CLR 28/23 A2981 RMK AO2
Observed
Aug-26 @ 03:55 UTC
Wind
  • 130° at 3 KTS
Visibility
10 SM
Flight Rules
VFR
Cloud Levels
  • Clear skies
Temperature
28°C / 82°F
Dewpoint
23°C / 73°F
Heat Index
31°C / 87°F
Humidity
74%
Altimeter
29.81" Hg
Pressure
1009.52 hPa